sensor_id;sensor_type;location;lat;lon;timestamp;P1;durP1;ratioP1;P2;durP2;ratioP2
24425;SDS011;12611;44.446;26.000;2022-09-09T00:00:24;5.75;;;3.50;;
24425;SDS011;12611;44.446;26.000;2022-09-09T00:02:55;6.57;;;3.83;;
24425;SDS011;12611;44.446;26.000;2022-09-09T00:05:31;7.72;;;3.70;;
24425;SDS011;12611;44.446;26.000;2022-09-09T00:08:07;7.30;;;3.83;;
24425;SDS011;12611;44.446;26.000;2022-09-09T00:10:45;9.00;;;4.28;;
24425;SDS011;12611;44.446;26.000;2022-09-09T00:13:18;5.68;;;3.58;;
24425;SDS011;12611;44.446;26.000;2022-09-09T00:15:55;7.47;;;4.13;;
24425;SDS011;12611;44.446;26.000;2022-09-09T00:18:28;7.32;;;3.83;;
24425;SDS011;12611;44.446;26.000;2022-09-09T00:21:05;4.82;;;3.70;;
24425;SDS011;12611;44.446;26.000;2022-09-09T00:23:37;7.22;;;3.80;;
24425;SDS011;12611;44.446;26.000;2022-09-09T00:26:08;7.10;;;4.00;;
24425;SDS011;12611;44.446;26.000;2022-09-09T00:28:43;8.23;;;3.92;;
24425;SDS011;12611;44.446;26.000;2022-09-09T00:31:18;4.07;;;3.30;;
24425;SDS011;12611;44.446;26.000;2022-09-09T00:33:51;6.18;;;4.03;;
24425;SDS011;12611;44.446;26.000;2022-09-09T00:36:22;7.07;;;3.70;;
24425;SDS011;12611;44.446;26.000;2022-09-09T00:38:55;7.65;;;4.00;;
24425;SDS011;12611;44.446;26.000;2022-09-09T00:41:28;8.23;;;3.97;;
24425;SDS011;12611;44.446;26.000;2022-09-09T00:44:12;8.70;;;4.63;;
24425;SDS011;12611;44.446;26.000;2022-09-09T00:46:56;5.25;;;3.72;;
24425;SDS011;12611;44.446;26.000;2022-09-09T00:49:37;6.90;;;4.35;;
24425;SDS011;12611;44.446;26.000;2022-09-09T00:52:20;5.63;;;4.10;;
24425;SDS011;12611;44.446;26.000;2022-09-09T00:54:58;7.10;;;4.43;;
24425;SDS011;12611;44.446;26.000;2022-09-09T00:57:34;8.20;;;4.25;;
24425;SDS011;12611;44.446;26.000;2022-09-09T01:00:17;7.40;;;4.53;;
24425;SDS011;12611;44.446;26.000;2022-09-09T01:02:53;6.45;;;4.35;;
24425;SDS011;12611;44.446;26.000;2022-09-09T01:05:30;6.10;;;4.32;;
24425;SDS011;12611;44.446;26.000;2022-09-09T01:08:05;9.65;;;4.38;;
24425;SDS011;12611;44.446;26.000;2022-09-09T01:10:50;5.80;;;4.47;;
24425;SDS011;12611;44.446;26.000;2022-09-09T01:13:22;6.95;;;4.88;;
24425;SDS011;12611;44.446;26.000;2022-09-09T01:15:53;5.97;;;4.43;;
24425;SDS011;12611;44.446;26.000;2022-09-09T01:18:27;11.05;;;5.13;;
24425;SDS011;12611;44.446;26.000;2022-09-09T01:21:03;9.27;;;5.30;;
24425;SDS011;12611;44.446;26.000;2022-09-09T01:23:56;9.57;;;5.07;;
24425;SDS011;12611;44.446;26.000;2022-09-09T01:26:41;10.32;;;5.88;;
24425;SDS011;12611;44.446;26.000;2022-09-09T01:29:11;9.23;;;6.32;;
24425;SDS011;12611;44.446;26.000;2022-09-09T01:35:37;12.27;;;6.50;;
24425;SDS011;12611;44.446;26.000;2022-09-09T01:38:10;12.38;;;6.40;;
24425;SDS011;12611;44.446;26.000;2022-09-09T01:40:39;14.80;;;6.60;;
24425;SDS011;12611;44.446;26.000;2022-09-09T01:43:08;9.45;;;6.43;;
24425;SDS011;12611;44.446;26.000;2022-09-09T01:45:37;13.55;;;7.25;;
24425;SDS011;12611;44.446;26.000;2022-09-09T01:48:06;11.38;;;5.78;;
24425;SDS011;12611;44.446;26.000;2022-09-09T01:50:35;13.18;;;6.32;;
24425;SDS011;12611;44.446;26.000;2022-09-09T01:53:03;13.80;;;6.45;;
24425;SDS011;12611;44.446;26.000;2022-09-09T01:55:32;9.65;;;6.40;;
24425;SDS011;12611;44.446;26.000;2022-09-09T01:58:10;12.07;;;6.55;;
24425;SDS011;12611;44.446;26.000;2022-09-09T02:00:49;15.45;;;6.68;;
24425;SDS011;12611;44.446;26.000;2022-09-09T02:03:25;10.82;;;6.28;;
24425;SDS011;12611;44.446;26.000;2022-09-09T02:05:59;11.35;;;7.30;;
24425;SDS011;12611;44.446;26.000;2022-09-09T02:08:33;12.70;;;7.35;;
24425;SDS011;12611;44.446;26.000;2022-09-09T02:11:06;9.32;;;6.57;;
24425;SDS011;12611;44.446;26.000;2022-09-09T02:13:40;13.43;;;6.70;;
24425;SDS011;12611;44.446;26.000;2022-09-09T02:16:11;10.43;;;6.20;;
24425;SDS011;12611;44.446;26.000;2022-09-09T02:18:47;10.63;;;6.63;;
24425;SDS011;12611;44.446;26.000;2022-09-09T02:21:18;12.93;;;6.60;;
24425;SDS011;12611;44.446;26.000;2022-09-09T02:23:48;9.90;;;6.78;;
24425;SDS011;12611;44.446;26.000;2022-09-09T02:26:19;12.88;;;6.72;;
24425;SDS011;12611;44.446;26.000;2022-09-09T02:28:51;14.80;;;6.93;;
24425;SDS011;12611;44.446;26.000;2022-09-09T02:31:23;12.38;;;6.63;;
24425;SDS011;12611;44.446;26.000;2022-09-09T02:33:54;14.85;;;7.63;;
24425;SDS011;12611;44.446;26.000;2022-09-09T02:36:25;14.10;;;7.67;;
24425;SDS011;12611;44.446;26.000;2022-09-09T02:38:59;18.15;;;7.90;;
24425;SDS011;12611;44.446;26.000;2022-09-09T02:41:31;11.07;;;6.50;;
24425;SDS011;12611;44.446;26.000;2022-09-09T02:44:04;10.93;;;6.43;;
24425;SDS011;12611;44.446;26.000;2022-09-09T02:46:40;11.07;;;6.57;;
24425;SDS011;12611;44.446;26.000;2022-09-09T02:49:19;11.25;;;6.80;;
24425;SDS011;12611;44.446;26.000;2022-09-09T02:51:53;11.60;;;6.73;;
24425;SDS011;12611;44.446;26.000;2022-09-09T02:54:29;11.95;;;7.50;;
24425;SDS011;12611;44.446;26.000;2022-09-09T02:57:01;13.50;;;7.28;;
24425;SDS011;12611;44.446;26.000;2022-09-09T02:59:34;11.20;;;6.73;;
24425;SDS011;12611;44.446;26.000;2022-09-09T03:02:02;10.93;;;7.27;;
24425;SDS011;12611;44.446;26.000;2022-09-09T03:04:31;11.40;;;7.10;;
24425;SDS011;12611;44.446;26.000;2022-09-09T03:07:00;11.93;;;6.77;;
24425;SDS011;12611;44.446;26.000;2022-09-09T03:09:30;13.57;;;7.15;;
24425;SDS011;12611;44.446;26.000;2022-09-09T03:11:58;15.93;;;8.15;;
24425;SDS011;12611;44.446;26.000;2022-09-09T03:14:27;15.43;;;7.45;;
24425;SDS011;12611;44.446;26.000;2022-09-09T03:16:56;13.10;;;7.32;;
24425;SDS011;12611;44.446;26.000;2022-09-09T03:19:27;11.10;;;6.90;;
24425;SDS011;12611;44.446;26.000;2022-09-09T03:21:56;10.75;;;6.90;;
24425;SDS011;12611;44.446;26.000;2022-09-09T03:24:24;11.63;;;6.82;;
24425;SDS011;12611;44.446;26.000;2022-09-09T03:26:53;10.83;;;7.13;;
24425;SDS011;12611;44.446;26.000;2022-09-09T03:29:22;18.57;;;7.83;;
24425;SDS011;12611;44.446;26.000;2022-09-09T03:31:50;13.93;;;6.47;;
24425;SDS011;12611;44.446;26.000;2022-09-09T03:34:20;10.20;;;7.22;;
24425;SDS011;12611;44.446;26.000;2022-09-09T03:36:48;13.07;;;7.60;;
24425;SDS011;12611;44.446;26.000;2022-09-09T03:39:16;13.80;;;7.97;;
24425;SDS011;12611;44.446;26.000;2022-09-09T03:41:52;14.20;;;7.40;;
24425;SDS011;12611;44.446;26.000;2022-09-09T03:44:21;15.00;;;7.07;;
24425;SDS011;12611;44.446;26.000;2022-09-09T03:46:49;16.03;;;7.63;;
24425;SDS011;12611;44.446;26.000;2022-09-09T03:49:17;12.17;;;7.60;;
24425;SDS011;12611;44.446;26.000;2022-09-09T03:51:48;10.90;;;7.27;;
24425;SDS011;12611;44.446;26.000;2022-09-09T03:54:16;8.97;;;6.60;;
24425;SDS011;12611;44.446;26.000;2022-09-09T03:56:44;19.33;;;7.53;;
24425;SDS011;12611;44.446;26.000;2022-09-09T03:59:13;15.10;;;7.27;;
24425;SDS011;12611;44.446;26.000;2022-09-09T04:01:41;16.43;;;8.00;;
24425;SDS011;12611;44.446;26.000;2022-09-09T04:04:10;12.57;;;7.10;;
24425;SDS011;12611;44.446;26.000;2022-09-09T04:06:40;13.40;;;7.13;;
24425;SDS011;12611;44.446;26.000;2022-09-09T04:09:08;12.00;;;7.27;;
24425;SDS011;12611;44.446;26.000;2022-09-09T04:11:36;14.67;;;7.27;;
24425;SDS011;12611;44.446;26.000;2022-09-09T04:14:05;16.83;;;7.20;;
24425;SDS011;12611;44.446;26.000;2022-09-09T04:16:33;14.13;;;7.80;;
24425;SDS011;12611;44.446;26.000;2022-09-09T04:19:03;11.80;;;6.97;;
24425;SDS011;12611;44.446;26.000;2022-09-09T04:21:32;11.30;;;6.23;;
24425;SDS011;12611;44.446;26.000;2022-09-09T04:24:02;11.17;;;6.67;;
24425;SDS011;12611;44.446;26.000;2022-09-09T04:26:31;11.77;;;6.30;;
24425;SDS011;12611;44.446;26.000;2022-09-09T04:28:59;13.07;;;6.50;;
24425;SDS011;12611;44.446;26.000;2022-09-09T04:31:27;16.97;;;8.23;;
24425;SDS011;12611;44.446;26.000;2022-09-09T04:33:56;20.57;;;9.60;;
24425;SDS011;12611;44.446;26.000;2022-09-09T04:36:24;19.77;;;8.83;;
24425;SDS011;12611;44.446;26.000;2022-09-09T04:38:53;16.37;;;8.37;;
24425;SDS011;12611;44.446;26.000;2022-09-09T04:41:23;13.00;;;7.30;;
24425;SDS011;12611;44.446;26.000;2022-09-09T04:43:51;16.33;;;7.47;;
24425;SDS011;12611;44.446;26.000;2022-09-09T04:46:20;19.07;;;7.47;;
24425;SDS011;12611;44.446;26.000;2022-09-09T04:48:48;15.90;;;7.00;;
24425;SDS011;12611;44.446;26.000;2022-09-09T04:51:18;16.23;;;6.97;;
24425;SDS011;12611;44.446;26.000;2022-09-09T04:53:47;12.37;;;6.57;;
24425;SDS011;12611;44.446;26.000;2022-09-09T04:56:17;10.93;;;5.97;;
24425;SDS011;12611;44.446;26.000;2022-09-09T04:58:48;12.07;;;6.00;;
24425;SDS011;12611;44.446;26.000;2022-09-09T05:01:17;10.53;;;6.40;;
24425;SDS011;12611;44.446;26.000;2022-09-09T05:03:48;15.63;;;6.07;;
24425;SDS011;12611;44.446;26.000;2022-09-09T05:06:17;13.52;;;5.85;;
24425;SDS011;12611;44.446;26.000;2022-09-09T05:08:46;10.85;;;5.65;;
24425;SDS011;12611;44.446;26.000;2022-09-09T05:11:16;7.22;;;4.63;;
24425;SDS011;12611;44.446;26.000;2022-09-09T05:13:45;11.98;;;6.15;;
24425;SDS011;12611;44.446;26.000;2022-09-09T05:16:17;10.93;;;4.38;;
24425;SDS011;12611;44.446;26.000;2022-09-09T05:18:46;13.50;;;4.90;;
24425;SDS011;12611;44.446;26.000;2022-09-09T05:21:15;12.05;;;5.00;;
24425;SDS011;12611;44.446;26.000;2022-09-09T05:23:45;12.05;;;5.30;;
24425;SDS011;12611;44.446;26.000;2022-09-09T05:26:14;8.43;;;4.68;;
24425;SDS011;12611;44.446;26.000;2022-09-09T05:28:45;8.85;;;5.45;;
24425;SDS011;12611;44.446;26.000;2022-09-09T05:31:14;7.72;;;4.85;;
24425;SDS011;12611;44.446;26.000;2022-09-09T05:33:46;10.57;;;5.40;;
24425;SDS011;12611;44.446;26.000;2022-09-09T05:36:16;8.43;;;4.40;;
24425;SDS011;12611;44.446;26.000;2022-09-09T05:38:45;9.75;;;4.97;;
24425;SDS011;12611;44.446;26.000;2022-09-09T05:41:14;7.07;;;4.20;;
24425;SDS011;12611;44.446;26.000;2022-09-09T05:43:43;10.80;;;5.10;;
24425;SDS011;12611;44.446;26.000;2022-09-09T05:46:13;10.82;;;5.28;;
24425;SDS011;12611;44.446;26.000;2022-09-09T05:48:43;8.68;;;4.60;;
24425;SDS011;12611;44.446;26.000;2022-09-09T05:51:15;8.02;;;4.03;;
24425;SDS011;12611;44.446;26.000;2022-09-09T05:53:44;9.45;;;4.38;;
24425;SDS011;12611;44.446;26.000;2022-09-09T05:56:13;6.50;;;4.03;;
24425;SDS011;12611;44.446;26.000;2022-09-09T05:58:44;6.68;;;4.20;;
24425;SDS011;12611;44.446;26.000;2022-09-09T06:01:14;8.35;;;4.30;;
24425;SDS011;12611;44.446;26.000;2022-09-09T06:03:44;6.75;;;3.72;;
24425;SDS011;12611;44.446;26.000;2022-09-09T06:06:15;9.73;;;4.22;;
24425;SDS011;12611;44.446;26.000;2022-09-09T06:08:47;10.35;;;4.45;;
24425;SDS011;12611;44.446;26.000;2022-09-09T06:11:18;8.60;;;3.60;;
24425;SDS011;12611;44.446;26.000;2022-09-09T06:13:48;4.60;;;3.00;;
24425;SDS011;12611;44.446;26.000;2022-09-09T06:16:18;6.93;;;2.97;;
24425;SDS011;12611;44.446;26.000;2022-09-09T06:18:51;12.27;;;3.40;;
24425;SDS011;12611;44.446;26.000;2022-09-09T06:21:20;5.88;;;3.20;;
24425;SDS011;12611;44.446;26.000;2022-09-09T06:23:50;6.38;;;3.10;;
24425;SDS011;12611;44.446;26.000;2022-09-09T06:26:24;5.70;;;3.45;;
24425;SDS011;12611;44.446;26.000;2022-09-09T06:28:54;6.60;;;3.28;;
24425;SDS011;12611;44.446;26.000;2022-09-09T06:31:25;6.40;;;2.95;;
24425;SDS011;12611;44.446;26.000;2022-09-09T06:33:58;7.63;;;2.80;;
24425;SDS011;12611;44.446;26.000;2022-09-09T06:36:28;5.40;;;2.72;;
24425;SDS011;12611;44.446;26.000;2022-09-09T06:38:57;7.70;;;2.80;;
24425;SDS011;12611;44.446;26.000;2022-09-09T06:41:26;5.78;;;3.15;;
24425;SDS011;12611;44.446;26.000;2022-09-09T06:43:56;5.68;;;3.30;;
24425;SDS011;12611;44.446;26.000;2022-09-09T06:46:25;7.07;;;2.80;;
24425;SDS011;12611;44.446;26.000;2022-09-09T06:48:54;4.05;;;2.63;;
24425;SDS011;12611;44.446;26.000;2022-09-09T06:51:27;5.18;;;2.88;;
24425;SDS011;12611;44.446;26.000;2022-09-09T06:53:58;10.50;;;3.55;;
24425;SDS011;12611;44.446;26.000;2022-09-09T06:56:29;4.25;;;2.97;;
24425;SDS011;12611;44.446;26.000;2022-09-09T06:58:59;5.53;;;2.70;;
24425;SDS011;12611;44.446;26.000;2022-09-09T07:01:31;8.07;;;3.08;;
24425;SDS011;12611;44.446;26.000;2022-09-09T07:04:00;7.85;;;2.88;;
24425;SDS011;12611;44.446;26.000;2022-09-09T07:06:32;6.90;;;2.58;;
24425;SDS011;12611;44.446;26.000;2022-09-09T07:09:02;4.93;;;2.60;;
24425;SDS011;12611;44.446;26.000;2022-09-09T07:11:32;7.97;;;3.08;;
24425;SDS011;12611;44.446;26.000;2022-09-09T07:14:04;6.35;;;2.65;;
24425;SDS011;12611;44.446;26.000;2022-09-09T07:16:32;6.88;;;2.83;;
24425;SDS011;12611;44.446;26.000;2022-09-09T07:19:03;8.98;;;2.80;;
24425;SDS011;12611;44.446;26.000;2022-09-09T07:21:33;3.85;;;2.50;;
24425;SDS011;12611;44.446;26.000;2022-09-09T07:24:02;5.35;;;2.85;;
24425;SDS011;12611;44.446;26.000;2022-09-09T07:26:33;7.63;;;3.15;;
24425;SDS011;12611;44.446;26.000;2022-09-09T07:29:02;8.27;;;2.97;;
24425;SDS011;12611;44.446;26.000;2022-09-09T07:31:32;12.15;;;3.75;;
24425;SDS011;12611;44.446;26.000;2022-09-09T07:34:02;6.35;;;3.05;;
24425;SDS011;12611;44.446;26.000;2022-09-09T07:36:32;8.00;;;2.90;;
24425;SDS011;12611;44.446;26.000;2022-09-09T07:39:03;11.93;;;3.30;;
24425;SDS011;12611;44.446;26.000;2022-09-09T07:41:33;6.85;;;2.70;;
24425;SDS011;12611;44.446;26.000;2022-09-09T07:44:04;4.35;;;2.83;;
24425;SDS011;12611;44.446;26.000;2022-09-09T07:46:34;6.90;;;2.78;;
24425;SDS011;12611;44.446;26.000;2022-09-09T07:49:03;5.95;;;2.72;;
24425;SDS011;12611;44.446;26.000;2022-09-09T07:51:34;5.00;;;2.45;;
24425;SDS011;12611;44.446;26.000;2022-09-09T07:54:04;5.93;;;2.92;;
24425;SDS011;12611;44.446;26.000;2022-09-09T07:56:36;8.23;;;2.88;;
24425;SDS011;12611;44.446;26.000;2022-09-09T07:59:06;7.10;;;3.20;;
24425;SDS011;12611;44.446;26.000;2022-09-09T08:01:35;9.75;;;2.78;;
24425;SDS011;12611;44.446;26.000;2022-09-09T08:04:07;4.80;;;2.30;;
24425;SDS011;12611;44.446;26.000;2022-09-09T08:06:39;9.02;;;2.83;;
24425;SDS011;12611;44.446;26.000;2022-09-09T08:09:09;9.45;;;2.97;;
24425;SDS011;12611;44.446;26.000;2022-09-09T08:11:38;7.20;;;2.75;;
24425;SDS011;12611;44.446;26.000;2022-09-09T08:14:08;7.95;;;2.92;;
24425;SDS011;12611;44.446;26.000;2022-09-09T08:16:39;5.93;;;2.60;;
24425;SDS011;12611;44.446;26.000;2022-09-09T08:19:09;14.00;;;2.83;;
24425;SDS011;12611;44.446;26.000;2022-09-09T08:21:39;7.57;;;2.83;;
24425;SDS011;12611;44.446;26.000;2022-09-09T08:24:08;4.50;;;2.60;;
24425;SDS011;12611;44.446;26.000;2022-09-09T08:26:39;4.43;;;2.58;;
24425;SDS011;12611;44.446;26.000;2022-09-09T08:29:09;5.25;;;2.70;;
24425;SDS011;12611;44.446;26.000;2022-09-09T08:31:40;5.07;;;2.72;;
24425;SDS011;12611;44.446;26.000;2022-09-09T08:34:09;7.50;;;3.22;;
24425;SDS011;12611;44.446;26.000;2022-09-09T08:36:40;5.43;;;3.05;;
24425;SDS011;12611;44.446;26.000;2022-09-09T08:39:10;6.82;;;2.92;;
24425;SDS011;12611;44.446;26.000;2022-09-09T08:44:52;10.60;;;3.22;;
24425;SDS011;12611;44.446;26.000;2022-09-09T08:47:30;9.32;;;2.78;;
24425;SDS011;12611;44.446;26.000;2022-09-09T08:50:13;10.63;;;2.58;;
24425;SDS011;12611;44.446;26.000;2022-09-09T08:52:51;10.23;;;3.30;;
24425;SDS011;12611;44.446;26.000;2022-09-09T08:55:28;8.90;;;2.95;;
24425;SDS011;12611;44.446;26.000;2022-09-09T08:58:09;4.95;;;2.75;;
24425;SDS011;12611;44.446;26.000;2022-09-09T09:00:50;5.78;;;2.60;;
24425;SDS011;12611;44.446;26.000;2022-09-09T09:03:33;4.45;;;2.45;;
24425;SDS011;12611;44.446;26.000;2022-09-09T09:06:19;6.30;;;3.40;;
24425;SDS011;12611;44.446;26.000;2022-09-09T09:09:05;9.30;;;3.03;;
24425;SDS011;12611;44.446;26.000;2022-09-09T09:11:40;10.65;;;3.17;;
24425;SDS011;12611;44.446;26.000;2022-09-09T09:14:15;10.60;;;2.65;;
24425;SDS011;12611;44.446;26.000;2022-09-09T09:16:51;8.13;;;3.40;;
24425;SDS011;12611;44.446;26.000;2022-09-09T09:19:21;7.65;;;2.72;;
24425;SDS011;12611;44.446;26.000;2022-09-09T09:21:54;5.70;;;2.72;;
24425;SDS011;12611;44.446;26.000;2022-09-09T09:24:33;10.02;;;2.88;;
24425;SDS011;12611;44.446;26.000;2022-09-09T09:27:11;5.47;;;2.83;;
24425;SDS011;12611;44.446;26.000;2022-09-09T09:29:46;7.93;;;2.88;;
24425;SDS011;12611;44.446;26.000;2022-09-09T09:32:38;16.13;;;5.20;;
24425;SDS011;12611;44.446;26.000;2022-09-09T09:35:10;7.68;;;2.95;;
24425;SDS011;12611;44.446;26.000;2022-09-09T09:37:41;3.95;;;2.53;;
24425;SDS011;12611;44.446;26.000;2022-09-09T09:40:32;7.70;;;2.83;;
24425;SDS011;12611;44.446;26.000;2022-09-09T09:43:01;6.72;;;3.53;;
24425;SDS011;12611;44.446;26.000;2022-09-09T09:45:35;7.32;;;2.72;;
24425;SDS011;12611;44.446;26.000;2022-09-09T09:48:30;6.75;;;4.40;;
24425;SDS011;12611;44.446;26.000;2022-09-09T09:53:34;5.45;;;3.53;;
24425;SDS011;12611;44.446;26.000;2022-09-09T09:56:08;12.00;;;3.45;;
24425;SDS011;12611;44.446;26.000;2022-09-09T09:58:38;12.40;;;3.42;;
24425;SDS011;12611;44.446;26.000;2022-09-09T10:01:18;6.40;;;2.72;;
24425;SDS011;12611;44.446;26.000;2022-09-09T10:03:50;6.07;;;3.58;;
24425;SDS011;12611;44.446;26.000;2022-09-09T10:06:28;14.40;;;4.13;;
24425;SDS011;12611;44.446;26.000;2022-09-09T10:08:58;6.55;;;2.78;;
24425;SDS011;12611;44.446;26.000;2022-09-09T10:11:37;9.05;;;3.83;;
24425;SDS011;12611;44.446;26.000;2022-09-09T10:14:15;7.85;;;3.65;;
24425;SDS011;12611;44.446;26.000;2022-09-09T10:16:52;7.38;;;3.10;;
24425;SDS011;12611;44.446;26.000;2022-09-09T10:19:41;10.27;;;5.22;;
24425;SDS011;12611;44.446;26.000;2022-09-09T10:22:21;11.25;;;6.65;;
24425;SDS011;12611;44.446;26.000;2022-09-09T10:25:03;7.90;;;4.50;;
24425;SDS011;12611;44.446;26.000;2022-09-09T10:27:52;12.25;;;3.88;;
24425;SDS011;12611;44.446;26.000;2022-09-09T10:30:40;12.05;;;6.68;;
24425;SDS011;12611;44.446;26.000;2022-09-09T10:33:20;10.60;;;5.13;;
24425;SDS011;12611;44.446;26.000;2022-09-09T10:35:57;6.20;;;3.03;;
24425;SDS011;12611;44.446;26.000;2022-09-09T10:38:34;11.88;;;4.95;;
24425;SDS011;12611;44.446;26.000;2022-09-09T10:41:11;7.80;;;3.72;;
24425;SDS011;12611;44.446;26.000;2022-09-09T10:43:51;7.60;;;3.75;;
24425;SDS011;12611;44.446;26.000;2022-09-09T10:46:41;5.80;;;3.10;;
24425;SDS011;12611;44.446;26.000;2022-09-09T10:49:20;13.82;;;4.10;;
24425;SDS011;12611;44.446;26.000;2022-09-09T10:52:01;13.15;;;3.10;;
24425;SDS011;12611;44.446;26.000;2022-09-09T10:54:41;7.93;;;3.15;;
24425;SDS011;12611;44.446;26.000;2022-09-09T10:57:24;6.18;;;3.88;;
24425;SDS011;12611;44.446;26.000;2022-09-09T10:59:58;8.82;;;3.67;;
24425;SDS011;12611;44.446;26.000;2022-09-09T11:02:32;8.18;;;3.53;;
24425;SDS011;12611;44.446;26.000;2022-09-09T11:05:02;10.07;;;5.10;;
24425;SDS011;12611;44.446;26.000;2022-09-09T11:07:37;17.35;;;8.07;;
24425;SDS011;12611;44.446;26.000;2022-09-09T11:10:15;13.55;;;5.78;;
24425;SDS011;12611;44.446;26.000;2022-09-09T11:12:50;10.27;;;4.68;;
24425;SDS011;12611;44.446;26.000;2022-09-09T11:15:28;12.52;;;5.70;;
24425;SDS011;12611;44.446;26.000;2022-09-09T11:18:01;9.10;;;4.95;;
24425;SDS011;12611;44.446;26.000;2022-09-09T11:20:32;11.68;;;3.90;;
24425;SDS011;12611;44.446;26.000;2022-09-09T11:23:02;9.43;;;4.90;;
24425;SDS011;12611;44.446;26.000;2022-09-09T11:25:37;11.43;;;5.13;;
24425;SDS011;12611;44.446;26.000;2022-09-09T11:31:10;8.70;;;3.85;;
24425;SDS011;12611;44.446;26.000;2022-09-09T11:33:55;8.52;;;4.78;;
24425;SDS011;12611;44.446;26.000;2022-09-09T11:39:44;4.13;;;2.83;;
24425;SDS011;12611;44.446;26.000;2022-09-09T11:42:37;9.70;;;5.00;;
24425;SDS011;12611;44.446;26.000;2022-09-09T11:45:09;11.75;;;6.10;;
24425;SDS011;12611;44.446;26.000;2022-09-09T11:47:41;8.13;;;3.13;;
24425;SDS011;12611;44.446;26.000;2022-09-09T11:50:28;9.40;;;5.70;;
24425;SDS011;12611;44.446;26.000;2022-09-09T11:53:04;8.13;;;5.30;;
24425;SDS011;12611;44.446;26.000;2022-09-09T11:55:42;6.80;;;3.90;;
24425;SDS011;12611;44.446;26.000;2022-09-09T11:58:15;6.57;;;3.17;;
24425;SDS011;12611;44.446;26.000;2022-09-09T12:00:47;11.63;;;5.55;;
24425;SDS011;12611;44.446;26.000;2022-09-09T12:03:33;8.10;;;3.30;;
24425;SDS011;12611;44.446;26.000;2022-09-09T12:06:09;11.00;;;6.88;;
24425;SDS011;12611;44.446;26.000;2022-09-09T12:08:43;10.68;;;3.13;;
24425;SDS011;12611;44.446;26.000;2022-09-09T12:11:23;11.13;;;4.45;;
24425;SDS011;12611;44.446;26.000;2022-09-09T12:13:53;9.07;;;3.60;;
24425;SDS011;12611;44.446;26.000;2022-09-09T12:16:27;7.65;;;3.35;;
24425;SDS011;12611;44.446;26.000;2022-09-09T12:19:13;12.57;;;4.45;;
24425;SDS011;12611;44.446;26.000;2022-09-09T12:21:45;9.48;;;3.40;;
24425;SDS011;12611;44.446;26.000;2022-09-09T12:24:20;11.52;;;5.72;;
24425;SDS011;12611;44.446;26.000;2022-09-09T12:26:56;11.25;;;5.18;;
24425;SDS011;12611;44.446;26.000;2022-09-09T12:29:31;11.60;;;3.35;;
24425;SDS011;12611;44.446;26.000;2022-09-09T12:32:06;12.07;;;7.88;;
24425;SDS011;12611;44.446;26.000;2022-09-09T12:34:40;12.63;;;5.38;;
24425;SDS011;12611;44.446;26.000;2022-09-09T12:37:14;5.07;;;2.72;;
24425;SDS011;12611;44.446;26.000;2022-09-09T12:39:51;10.27;;;2.90;;
24425;SDS011;12611;44.446;26.000;2022-09-09T12:42:23;8.70;;;3.13;;
24425;SDS011;12611;44.446;26.000;2022-09-09T12:44:52;5.80;;;3.10;;
24425;SDS011;12611;44.446;26.000;2022-09-09T12:47:23;7.30;;;3.13;;
24425;SDS011;12611;44.446;26.000;2022-09-09T12:49:58;4.78;;;3.05;;
24425;SDS011;12611;44.446;26.000;2022-09-09T12:52:28;5.43;;;3.20;;
24425;SDS011;12611;44.446;26.000;2022-09-09T12:55:00;6.85;;;2.95;;
24425;SDS011;12611;44.446;26.000;2022-09-09T12:57:31;5.85;;;2.83;;
24425;SDS011;12611;44.446;26.000;2022-09-09T13:00:04;6.32;;;3.25;;
24425;SDS011;12611;44.446;26.000;2022-09-09T13:02:44;7.32;;;3.03;;
24425;SDS011;12611;44.446;26.000;2022-09-09T13:05:16;5.40;;;3.03;;
24425;SDS011;12611;44.446;26.000;2022-09-09T13:07:47;11.35;;;3.65;;
24425;SDS011;12611;44.446;26.000;2022-09-09T13:10:19;11.77;;;3.70;;
24425;SDS011;12611;44.446;26.000;2022-09-09T13:13:12;8.43;;;3.30;;
24425;SDS011;12611;44.446;26.000;2022-09-09T13:15:48;15.10;;;3.70;;
24425;SDS011;12611;44.446;26.000;2022-09-09T13:18:19;8.80;;;3.00;;
24425;SDS011;12611;44.446;26.000;2022-09-09T13:20:52;7.60;;;3.08;;
24425;SDS011;12611;44.446;26.000;2022-09-09T13:23:20;5.72;;;3.20;;
24425;SDS011;12611;44.446;26.000;2022-09-09T13:25:54;7.05;;;3.60;;
24425;SDS011;12611;44.446;26.000;2022-09-09T13:28:23;6.82;;;3.05;;
24425;SDS011;12611;44.446;26.000;2022-09-09T13:30:59;8.77;;;3.25;;
24425;SDS011;12611;44.446;26.000;2022-09-09T13:33:30;8.48;;;3.72;;
24425;SDS011;12611;44.446;26.000;2022-09-09T13:36:03;10.40;;;3.35;;
24425;SDS011;12611;44.446;26.000;2022-09-09T13:38:33;10.50;;;3.33;;
24425;SDS011;12611;44.446;26.000;2022-09-09T13:41:05;9.85;;;3.72;;
24425;SDS011;12611;44.446;26.000;2022-09-09T13:43:36;8.13;;;3.60;;
24425;SDS011;12611;44.446;26.000;2022-09-09T13:46:26;6.90;;;3.10;;
24425;SDS011;12611;44.446;26.000;2022-09-09T13:48:59;7.97;;;3.30;;
24425;SDS011;12611;44.446;26.000;2022-09-09T13:51:37;16.02;;;4.20;;
24425;SDS011;12611;44.446;26.000;2022-09-09T13:54:09;10.45;;;3.95;;
24425;SDS011;12611;44.446;26.000;2022-09-09T13:56:38;9.65;;;3.67;;
24425;SDS011;12611;44.446;26.000;2022-09-09T13:59:10;9.43;;;3.28;;
24425;SDS011;12611;44.446;26.000;2022-09-09T14:01:40;10.00;;;3.30;;
24425;SDS011;12611;44.446;26.000;2022-09-09T14:04:08;8.20;;;3.78;;
24425;SDS011;12611;44.446;26.000;2022-09-09T14:06:38;12.75;;;3.67;;
24425;SDS011;12611;44.446;26.000;2022-09-09T14:09:10;5.53;;;3.15;;
24425;SDS011;12611;44.446;26.000;2022-09-09T14:11:40;8.52;;;3.63;;
24425;SDS011;12611;44.446;26.000;2022-09-09T14:14:09;13.52;;;4.05;;
24425;SDS011;12611;44.446;26.000;2022-09-09T14:16:37;8.48;;;3.83;;
24425;SDS011;12611;44.446;26.000;2022-09-09T14:19:05;10.35;;;3.88;;
24425;SDS011;12611;44.446;26.000;2022-09-09T14:21:35;12.82;;;3.42;;
24425;SDS011;12611;44.446;26.000;2022-09-09T14:24:05;8.68;;;3.38;;
24425;SDS011;12611;44.446;26.000;2022-09-09T14:26:33;8.70;;;4.13;;
24425;SDS011;12611;44.446;26.000;2022-09-09T14:29:01;7.65;;;3.55;;
24425;SDS011;12611;44.446;26.000;2022-09-09T14:31:30;7.82;;;3.90;;
24425;SDS011;12611;44.446;26.000;2022-09-09T14:33:58;8.43;;;3.63;;
24425;SDS011;12611;44.446;26.000;2022-09-09T14:36:27;6.10;;;3.40;;
24425;SDS011;12611;44.446;26.000;2022-09-09T14:38:55;6.05;;;3.88;;
24425;SDS011;12611;44.446;26.000;2022-09-09T14:41:25;7.05;;;3.70;;
24425;SDS011;12611;44.446;26.000;2022-09-09T14:43:55;8.38;;;3.30;;
24425;SDS011;12611;44.446;26.000;2022-09-09T14:46:23;7.75;;;3.28;;
24425;SDS011;12611;44.446;26.000;2022-09-09T14:48:52;9.32;;;3.38;;
24425;SDS011;12611;44.446;26.000;2022-09-09T14:51:21;5.57;;;2.92;;
24425;SDS011;12611;44.446;26.000;2022-09-09T14:53:51;9.48;;;3.75;;
24425;SDS011;12611;44.446;26.000;2022-09-09T14:56:21;5.45;;;3.40;;
24425;SDS011;12611;44.446;26.000;2022-09-09T14:58:54;5.00;;;3.63;;
24425;SDS011;12611;44.446;26.000;2022-09-09T15:01:23;6.70;;;3.38;;
24425;SDS011;12611;44.446;26.000;2022-09-09T15:03:54;9.30;;;3.65;;
24425;SDS011;12611;44.446;26.000;2022-09-09T15:06:24;7.47;;;3.90;;
24425;SDS011;12611;44.446;26.000;2022-09-09T15:08:53;7.28;;;3.38;;
24425;SDS011;12611;44.446;26.000;2022-09-09T15:11:25;12.75;;;4.10;;
24425;SDS011;12611;44.446;26.000;2022-09-09T15:13:58;6.07;;;3.47;;
24425;SDS011;12611;44.446;26.000;2022-09-09T15:16:27;7.13;;;3.47;;